Time;durP1;ratioP1;P1;durP2;ratioP2;P2;SDS_P1;SDS_P2;PMS_P1;PMS_P2;Temp;Humidity;BMP_temperature;BMP_pressure;BME280_temperature;BME280_humidity;BME280_pressure;Samples;Min_cycle;Max_cycle;Signal;HPM_P1;HPM_P2
2021/09/13 00:01:48;;;;;;;8.60;7.70;;;19.00;96.60;;;;;;5090031;28;20208;-62
2021/09/13 00:04:14;;;;;;;11.07;8.03;;;19.00;96.70;;;;;;5074303;28;20169;-62
2021/09/13 00:06:40;;;;;;;8.70;7.90;;;19.00;96.70;;;;;;5074488;28;20670;-62
2021/09/13 00:09:05;;;;;;;11.43;7.57;;;19.00;96.90;;;;;;5089838;28;20231;-63
2021/09/13 00:11:31;;;;;;;10.60;8.43;;;18.90;97.00;;;;;;5089709;28;20685;-62
2021/09/13 00:13:56;;;;;;;12.97;9.37;;;18.90;97.10;;;;;;5074061;28;20169;-62
2021/09/13 00:16:22;;;;;;;8.37;7.40;;;18.90;97.00;;;;;;5089492;28;20262;-62
2021/09/13 00:18:48;;;;;;;9.23;8.10;;;18.90;97.00;;;;;;5074020;28;20201;-63
2021/09/13 00:21:14;;;;;;;8.63;7.30;;;18.90;96.90;;;;;;5073825;28;20197;-62
2021/09/13 00:23:39;;;;;;;8.30;7.50;;;18.90;97.00;;;;;;5074041;28;20177;-64
2021/09/13 00:26:05;;;;;;;11.70;7.93;;;18.90;97.00;;;;;;5074100;28;20463;-63
2021/09/13 00:28:31;;;;;;;10.53;7.90;;;18.90;97.00;;;;;;5089532;28;20181;-63
2021/09/13 00:30:56;;;;;;;9.10;7.87;;;18.80;97.10;;;;;;5073934;28;20192;-62
2021/09/13 00:33:22;;;;;;;10.40;7.90;;;18.80;97.10;;;;;;5073934;28;20177;-62
2021/09/13 00:35:47;;;;;;;13.00;8.80;;;18.80;97.20;;;;;;5073792;28;20237;-62
2021/09/13 00:38:13;;;;;;;12.87;8.43;;;18.70;97.20;;;;;;5073803;28;20177;-63
2021/09/13 00:40:38;;;;;;;9.63;8.60;;;18.70;97.20;;;;;;5073913;28;20185;-63
2021/09/13 00:43:04;;;;;;;12.47;8.10;;;18.60;97.20;;;;;;5072589;28;20201;-63
2021/09/13 00:45:30;;;;;;;11.37;7.80;;;18.70;97.30;;;;;;5073705;28;20209;-62
2021/09/13 00:47:56;;;;;;;9.80;8.50;;;18.60;97.30;;;;;;5072340;28;20197;-62
2021/09/13 00:50:21;;;;;;;11.10;8.10;;;18.60;97.40;;;;;;5073412;28;20945;-64
2021/09/13 00:52:51;;;;;;;9.80;8.80;;;18.60;97.40;;;;;;5073622;28;20224;-62
2021/09/13 00:55:18;;;;;;;9.73;7.37;;;18.50;97.40;;;;;;5073761;28;20169;-62
2021/09/13 00:57:44;;;;;;;11.00;7.73;;;18.50;97.40;;;;;;5073662;28;20509;-63
2021/09/13 01:00:10;;;;;;;10.03;8.20;;;18.50;97.50;;;;;;5073539;28;20853;-62
2021/09/13 01:02:36;;;;;;;9.23;7.50;;;18.50;97.50;;;;;;5073457;28;20467;-62
2021/09/13 01:05:02;;;;;;;8.27;7.40;;;18.50;97.50;;;;;;5073464;28;20801;-64
2021/09/13 01:07:30;;;;;;;12.73;8.47;;;18.40;97.60;;;;;;5073919;28;20530;-62
2021/09/13 01:10:00;;;;;;;9.23;7.53;;;18.40;97.60;;;;;;5088960;28;20425;-62
2021/09/13 01:12:26;;;;;;;11.50;8.10;;;18.40;97.70;;;;;;5073828;28;20526;-62
2021/09/13 01:14:51;;;;;;;9.17;7.40;;;18.40;97.70;;;;;;5073455;28;20890;-62
2021/09/13 01:17:17;;;;;;;10.30;8.20;;;18.30;97.60;;;;;;5073847;28;20548;-62
2021/09/13 01:19:43;;;;;;;10.63;8.30;;;18.30;97.60;;;;;;5088971;28;20666;-62
2021/09/13 01:22:11;;;;;;;10.53;7.83;;;18.30;97.60;;;;;;5072206;28;20208;-62
2021/09/13 01:24:37;;;;;;;12.33;8.50;;;18.20;97.60;;;;;;5073400;28;20402;-62
2021/09/13 01:27:08;;;;;;;10.67;8.67;;;18.20;97.60;;;;;;5073603;28;20460;-63
2021/09/13 01:29:34;;;;;;;11.80;8.07;;;18.20;97.60;;;;;;5073347;28;20397;-63
2021/09/13 01:32:01;;;;;;;10.20;8.13;;;18.10;97.60;;;;;;5073483;28;20477;-62
2021/09/13 01:34:27;;;;;;;8.80;7.27;;;18.10;97.60;;;;;;5090993;28;20410;-62
2021/09/13 01:36:53;;;;;;;10.87;8.60;;;18.10;97.60;;;;;;5077427;28;20448;-62
2021/09/13 01:39:18;;;;;;;8.23;7.43;;;18.00;97.60;;;;;;5077229;28;20761;-63
2021/09/13 01:41:45;;;;;;;8.70;7.80;;;18.00;97.70;;;;;;5092679;28;20449;-62
2021/09/13 01:44:12;;;;;;;11.80;8.40;;;18.00;97.70;;;;;;5077031;28;20177;-62
2021/09/13 01:46:39;;;;;;;11.17;8.60;;;18.00;97.80;;;;;;5077184;28;20477;-62
2021/09/13 01:49:06;;;;;;;8.30;7.50;;;17.90;97.80;;;;;;5076897;28;20815;-62
2021/09/13 01:51:32;;;;;;;12.33;8.30;;;17.90;97.80;;;;;;5076449;28;20500;-64
2021/09/13 01:53:58;;;;;;;8.63;7.83;;;17.90;97.90;;;;;;5075513;28;20418;-62
2021/09/13 01:56:24;;;;;;;11.23;8.40;;;17.90;97.90;;;;;;5076935;28;20482;-61
2021/09/13 01:58:49;;;;;;;10.47;8.27;;;17.90;97.90;;;;;;5076722;28;20226;-63
2021/09/13 02:01:15;;;;;;;11.43;8.20;;;17.90;97.90;;;;;;5076828;28;20252;-62
2021/09/13 02:03:41;;;;;;;11.37;8.77;;;17.90;98.00;;;;;;5076624;28;20537;-62
2021/09/13 02:06:07;;;;;;;9.53;8.07;;;17.90;98.00;;;;;;5076645;28;20204;-62
2021/09/13 02:08:32;;;;;;;12.40;8.40;;;17.80;98.00;;;;;;5076535;28;20398;-63
2021/09/13 02:10:58;;;;;;;10.77;9.00;;;17.80;98.00;;;;;;5092096;28;20185;-62
2021/09/13 02:13:23;;;;;;;11.70;7.80;;;17.80;98.10;;;;;;5076369;28;20170;-63
2021/09/13 02:15:49;;;;;;;10.00;8.10;;;17.80;98.20;;;;;;5076501;28;20181;-62
2021/09/13 02:18:15;;;;;;;9.87;7.40;;;17.80;98.20;;;;;;5076417;28;20556;-63
2021/09/13 02:20:40;;;;;;;10.33;7.80;;;17.70;98.20;;;;;;5091915;28;20231;-62
2021/09/13 02:23:06;;;;;;;11.80;8.50;;;17.70;98.30;;;;;;5075033;28;20659;-62
2021/09/13 02:25:31;;;;;;;10.63;8.20;;;17.70;98.30;;;;;;5076224;28;20185;-62
2021/09/13 02:27:57;;;;;;;8.90;8.00;;;17.70;98.40;;;;;;5076099;28;20200;-62
2021/09/13 02:30:23;;;;;;;9.47;8.17;;;17.60;98.30;;;;;;5076211;28;20255;-62
2021/09/13 02:32:48;;;;;;;9.00;7.80;;;17.60;98.30;;;;;;5091600;28;20213;-64
2021/09/13 02:35:14;;;;;;;13.50;8.53;;;17.60;98.40;;;;;;5076085;28;20169;-62
2021/09/13 02:37:40;;;;;;;9.53;8.30;;;17.60;98.40;;;;;;5075955;28;20217;-62
2021/09/13 02:40:07;;;;;;;8.70;7.80;;;17.50;98.30;;;;;;5075990;28;20207;-63
2021/09/13 02:42:32;;;;;;;10.80;7.50;;;17.50;98.40;;;;;;5076396;28;20208;-62
2021/09/13 02:44:58;;;;;;;8.50;7.57;;;17.50;98.50;;;;;;5075510;28;20903;-62
2021/09/13 02:47:24;;;;;;;12.67;8.23;;;17.40;98.50;;;;;;5076245;28;20201;-61
2021/09/13 02:49:49;;;;;;;14.97;8.67;;;17.40;98.50;;;;;;5091310;28;20646;-62
2021/09/13 02:52:15;;;;;;;12.77;8.13;;;17.40;98.60;;;;;;5075359;28;20236;-62
2021/09/13 02:54:40;;;;;;;12.40;8.50;;;17.40;98.60;;;;;;5075721;28;20662;-63
2021/09/13 02:57:06;;;;;;;8.50;7.60;;;17.40;98.70;;;;;;5075985;28;20560;-63
2021/09/13 02:59:32;;;;;;;9.47;8.57;;;17.30;98.70;;;;;;5075581;28;20181;-62
2021/09/13 03:01:57;;;;;;;11.57;8.87;;;17.30;98.80;;;;;;5075137;28;20201;-62
2021/09/13 03:04:23;;;;;;;11.13;8.10;;;17.20;98.90;;;;;;5075583;28;20173;-62
2021/09/13 03:06:51;;;;;;;10.13;8.33;;;17.20;98.90;;;;;;5090981;28;20201;-62
2021/09/13 03:09:17;;;;;;;14.70;9.23;;;17.20;99.00;;;;;;5075407;28;20169;-62
2021/09/13 03:11:43;;;;;;;15.10;8.53;;;17.20;99.00;;;;;;5075634;28;20477;-63
2021/09/13 03:14:08;;;;;;;10.47;8.63;;;17.20;99.00;;;;;;5075281;28;20910;-62
2021/09/13 03:16:34;;;;;;;11.33;10.00;;;17.20;99.10;;;;;;5090919;28;20438;-62
2021/09/13 03:18:59;;;;;;;9.10;8.00;;;17.20;99.10;;;;;;5090771;28;20184;-63
2021/09/13 03:21:25;;;;;;;11.20;8.90;;;17.20;99.10;;;;;;5090620;28;20677;-62
2021/09/13 03:23:51;;;;;;;11.13;8.57;;;17.30;99.20;;;;;;5090666;28;20188;-62
2021/09/13 03:26:17;;;;;;;12.60;9.23;;;17.30;99.10;;;;;;5074941;28;20234;-64
2021/09/13 03:28:42;;;;;;;10.27;9.17;;;17.30;99.00;;;;;;5090598;28;20486;-62
2021/09/13 03:31:08;;;;;;;11.90;8.27;;;17.40;99.00;;;;;;5074953;28;20208;-62
2021/09/13 03:33:34;;;;;;;10.27;8.20;;;17.40;99.00;;;;;;5074915;28;20179;-63
2021/09/13 03:36:00;;;;;;;10.87;8.33;;;17.40;98.90;;;;;;5090449;28;20547;-62
2021/09/13 03:38:25;;;;;;;18.00;8.90;;;17.40;98.90;;;;;;5074793;28;20176;-64
2021/09/13 03:40:51;;;;;;;10.07;7.33;;;17.40;98.90;;;;;;5074782;28;20402;-62
2021/09/13 03:43:17;;;;;;;10.83;8.80;;;17.50;98.80;;;;;;5074739;28;20181;-62
2021/09/13 03:45:42;;;;;;;13.77;8.40;;;17.40;98.70;;;;;;5090142;28;20541;-62
2021/09/13 03:48:08;;;;;;;13.20;8.97;;;17.50;98.70;;;;;;5073419;28;20196;-63
2021/09/13 03:50:33;;;;;;;11.30;8.30;;;17.50;98.90;;;;;;5089887;28;20237;-62
2021/09/13 03:52:59;;;;;;;11.17;7.60;;;17.50;99.10;;;;;;5074385;28;20261;-62
2021/09/13 03:55:25;;;;;;;12.23;9.00;;;17.50;99.20;;;;;;5074482;28;20650;-62
2021/09/13 03:57:50;;;;;;;12.17;9.50;;;17.50;99.10;;;;;;5073727;28;20196;-62
2021/09/13 04:00:16;;;;;;;10.60;8.90;;;17.50;98.80;;;;;;5089924;28;20173;-62
2021/09/13 04:02:45;;;;;;;14.60;8.60;;;17.50;98.70;;;;;;5074195;28;20208;-64
2021/09/13 04:05:14;;;;;;;9.00;8.10;;;17.50;98.60;;;;;;5074209;28;20406;-62
2021/09/13 04:08:03;;;;;;;10.00;8.73;;;17.50;98.80;;;;;;5074108;28;20457;-62
2021/09/13 04:12:51;;;;;;;10.83;8.47;;;17.50;98.50;;;;;;5073995;28;20545;-62
2021/09/13 04:15:16;;;;;;;9.10;7.73;;;17.50;98.60;;;;;;5074127;28;20165;-63
2021/09/13 04:17:42;;;;;;;12.67;8.40;;;17.50;98.60;;;;;;5074005;28;20223;-62
2021/09/13 04:20:09;;;;;;;15.67;7.77;;;17.50;98.60;;;;;;5072885;28;20181;-63
2021/09/13 04:22:34;;;;;;;13.07;8.93;;;17.50;99.10;;;;;;5074055;28;20954;-64
2021/09/13 04:25:00;;;;;;;10.37;8.27;;;17.50;99.50;;;;;;5089570;28;20406;-63
2021/09/13 04:27:30;;;;;;;17.10;10.40;;;17.50;99.70;;;;;;5074354;28;20197;-62
2021/09/13 04:29:56;;;;;;;17.83;12.50;;;17.50;99.70;;;;;;5078329;28;20230;-62
2021/09/13 04:32:21;;;;;;;18.40;12.53;;;17.50;99.70;;;;;;5092051;28;20476;-62
2021/09/13 04:34:47;;;;;;;16.67;12.53;;;17.50;99.70;;;;;;5093477;28;20176;-63
2021/09/13 04:37:13;;;;;;;26.63;17.67;;;17.50;99.70;;;;;;5091152;28;20202;-62
2021/09/13 04:39:38;;;;;;;26.30;19.07;;;17.50;99.70;;;;;;5092812;28;20185;-63
2021/09/13 04:42:04;;;;;;;21.40;16.73;;;17.50;99.80;;;;;;5093844;28;20560;-63
2021/09/13 04:44:29;;;;;;;24.83;16.50;;;17.50;99.90;;;;;;5093382;28;20252;-63
2021/09/13 04:46:55;;;;;;;14.03;11.80;;;17.50;99.90;;;;;;5093642;28;20205;-65
2021/09/13 04:49:24;;;;;;;17.43;12.80;;;17.50;99.90;;;;;;5093377;28;20169;-63
2021/09/13 04:51:49;;;;;;;17.80;9.53;;;17.50;99.90;;;;;;5092752;28;20273;-62
2021/09/13 04:54:15;;;;;;;18.60;9.63;;;17.50;99.90;;;;;;5093756;28;20409;-63
2021/09/13 04:56:41;;;;;;;10.53;9.43;;;17.50;99.90;;;;;;5091744;28;20197;-63
2021/09/13 04:59:08;;;;;;;14.07;9.53;;;17.50;99.90;;;;;;5101228;28;20568;-63
2021/09/13 05:01:34;;;;;;;17.00;10.17;;;17.50;99.90;;;;;;5124412;28;20207;-62
2021/09/13 05:04:00;;;;;;;18.53;10.40;;;17.50;99.90;;;;;;5092367;28;20934;-63
2021/09/13 05:06:25;;;;;;;18.17;10.17;;;17.50;99.90;;;;;;5093466;28;20216;-63
2021/09/13 05:08:51;;;;;;;12.23;10.03;;;17.50;99.70;;;;;;5096202;28;20668;-62
2021/09/13 05:11:16;;;;;;;11.13;9.50;;;17.50;99.40;;;;;;5097851;28;20283;-63
2021/09/13 05:13:42;;;;;;;16.50;10.67;;;17.50;99.60;;;;;;5096943;28;20687;-63
2021/09/13 05:16:07;;;;;;;21.10;10.90;;;17.50;99.90;;;;;;5096764;28;20204;-63
2021/09/13 05:18:33;;;;;;;30.23;11.70;;;17.50;99.90;;;;;;5096903;28;20675;-63
2021/09/13 05:20:59;;;;;;;18.90;9.80;;;17.50;99.90;;;;;;5096729;28;20184;-62
2021/09/13 05:23:24;;;;;;;19.97;10.03;;;17.50;99.90;;;;;;5097442;28;20540;-64
2021/09/13 05:25:50;;;;;;;19.83;8.83;;;17.60;99.90;;;;;;5097091;28;20190;-63
2021/09/13 05:28:16;;;;;;;10.50;8.33;;;17.60;99.90;;;;;;5096172;28;20223;-64
2021/09/13 05:30:41;;;;;;;11.03;8.57;;;17.60;99.90;;;;;;5097416;28;20283;-62
2021/09/13 05:33:07;;;;;;;8.80;7.60;;;17.60;99.90;;;;;;5096003;28;20216;-63
2021/09/13 05:35:33;;;;;;;10.23;9.00;;;17.70;99.90;;;;;;5096222;28;20184;-62
2021/09/13 05:37:58;;;;;;;9.30;8.20;;;17.70;99.90;;;;;;5096780;28;20279;-63
2021/09/13 05:40:25;;;;;;;14.37;8.57;;;17.70;99.90;;;;;;5095456;28;20222;-62
2021/09/13 05:42:50;;;;;;;14.13;9.30;;;17.80;99.90;;;;;;5097098;28;20192;-63
2021/09/13 05:45:16;;;;;;;10.10;8.33;;;17.80;99.90;;;;;;5094655;28;20412;-62
2021/09/13 05:47:41;;;;;;;10.53;9.43;;;17.80;99.90;;;;;;5095564;28;20197;-63
2021/09/13 05:50:07;;;;;;;12.50;8.83;;;17.80;99.90;;;;;;5093565;28;20261;-63
2021/09/13 05:52:33;;;;;;;13.63;9.30;;;17.90;99.90;;;;;;5093574;28;20323;-64
2021/09/13 05:54:59;;;;;;;9.47;8.47;;;17.90;99.90;;;;;;5091880;28;21040;-63
2021/09/13 05:57:24;;;;;;;13.53;8.90;;;17.90;99.90;;;;;;5091394;28;20245;-62
2021/09/13 05:59:50;;;;;;;11.83;9.10;;;18.00;99.90;;;;;;5093653;28;20668;-63
2021/09/13 06:02:16;;;;;;;13.97;9.90;;;18.00;99.90;;;;;;5092816;28;20208;-62
2021/09/13 06:04:43;;;;;;;14.40;10.40;;;18.10;99.90;;;;;;5090030;28;20175;-63
2021/09/13 06:07:08;;;;;;;15.20;9.50;;;18.10;99.90;;;;;;5091935;28;20861;-62
2021/09/13 06:09:35;;;;;;;11.07;9.77;;;18.10;99.90;;;;;;5091792;28;20425;-65
2021/09/13 06:12:01;;;;;;;11.60;9.90;;;18.20;99.90;;;;;;5090529;28;20220;-63
2021/09/13 06:14:26;;;;;;;15.00;9.50;;;18.20;99.90;;;;;;5085764;28;20457;-63
2021/09/13 06:16:52;;;;;;;10.43;9.30;;;18.20;99.80;;;;;;5087093;28;20530;-62
2021/09/13 06:19:17;;;;;;;10.80;9.20;;;18.30;99.80;;;;;;5090367;28;20184;-64
2021/09/13 06:21:43;;;;;;;12.33;9.10;;;18.30;99.80;;;;;;5092685;28;20664;-62
2021/09/13 06:24:09;;;;;;;11.90;9.87;;;18.40;99.70;;;;;;5089978;28;20235;-63
2021/09/13 06:26:34;;;;;;;16.23;10.57;;;18.40;99.70;;;;;;5091856;28;20205;-63
2021/09/13 06:29:00;;;;;;;13.57;9.83;;;18.50;99.70;;;;;;5091506;28;20169;-63
2021/09/13 06:31:26;;;;;;;15.43;10.33;;;18.60;99.90;;;;;;5095358;28;20711;-64
2021/09/13 06:33:51;;;;;;;11.00;8.67;;;18.60;99.60;;;;;;5095896;28;20518;-63
2021/09/13 06:36:17;;;;;;;10.67;9.57;;;18.70;99.70;;;;;;5095517;28;20239;-63
2021/09/13 06:38:44;;;;;;;13.00;9.13;;;18.80;99.70;;;;;;5094619;28;20184;-65
2021/09/13 06:41:10;;;;;;;12.43;9.40;;;18.90;99.50;;;;;;5092096;28;20202;-63
2021/09/13 06:43:35;;;;;;;12.83;9.80;;;18.90;99.50;;;;;;5093270;28;20515;-62
2021/09/13 06:48:37;;;;;;;10.80;8.17;;;19.10;99.20;;;;;;5090727;28;20182;-64
2021/09/13 06:51:02;;;;;;;9.40;8.50;;;19.10;99.40;;;;;;5093689;28;21007;-62
2021/09/13 06:53:28;;;;;;;10.13;8.90;;;19.20;99.40;;;;;;5095350;28;20515;-62
2021/09/13 06:55:54;;;;;;;8.10;7.30;;;19.30;99.20;;;;;;5094441;28;20180;-63
2021/09/13 06:58:19;;;;;;;15.80;9.10;;;19.40;99.00;;;;;;5094188;28;20226;-64
2021/09/13 07:00:46;;;;;;;7.83;7.03;;;19.50;98.90;;;;;;5093497;28;20178;-64
2021/09/13 07:03:15;;;;;;;13.07;7.60;;;19.60;98.70;;;;;;5094498;28;20599;-63
2021/09/13 07:05:41;;;;;;;8.13;6.90;;;19.60;98.80;;;;;;5093381;28;20446;-63
2021/09/13 07:08:06;;;;;;;8.40;6.63;;;19.80;98.40;;;;;;5093264;28;20786;-63
2021/09/13 07:10:32;;;;;;;10.17;6.13;;;19.80;98.10;;;;;;5110736;28;20185;-65
2021/09/13 07:12:58;;;;;;;7.80;7.00;;;20.00;97.90;;;;;;5092392;28;20237;-62
2021/09/13 07:15:23;;;;;;;11.03;6.90;;;20.10;97.70;;;;;;5091855;28;20668;-62
2021/09/13 07:17:49;;;;;;;7.40;6.40;;;20.20;97.30;;;;;;5093035;28;20197;-62
2021/09/13 07:20:15;;;;;;;7.83;6.73;;;20.30;97.40;;;;;;5092572;28;20575;-62
2021/09/13 07:22:41;;;;;;;10.17;7.10;;;20.40;97.40;;;;;;5092469;28;20211;-62
2021/09/13 07:25:08;;;;;;;9.00;6.83;;;20.50;97.30;;;;;;5092056;28;20649;-62
2021/09/13 07:27:34;;;;;;;7.93;7.23;;;20.70;97.30;;;;;;5094800;28;20963;-62
2021/09/13 07:30:01;;;;;;;21.73;8.00;;;20.80;96.80;;;;;;5093741;28;20420;-62
2021/09/13 07:32:27;;;;;;;11.20;7.70;;;20.90;95.80;;;;;;5092847;28;20550;-63
2021/09/13 07:34:52;;;;;;;9.83;6.90;;;21.00;95.70;;;;;;5093397;28;20420;-65
2021/09/13 07:37:18;;;;;;;7.30;6.53;;;21.10;95.80;;;;;;5091809;28;20554;-64
2021/09/13 07:39:44;;;;;;;7.70;6.53;;;21.20;96.00;;;;;;5084395;28;20192;-62
2021/09/13 07:42:09;;;;;;;7.80;5.97;;;21.40;96.10;;;;;;5092339;28;20550;-62
2021/09/13 07:44:35;;;;;;;10.93;6.87;;;21.40;96.00;;;;;;5091406;28;20225;-64
2021/09/13 07:47:01;;;;;;;7.90;6.13;;;21.50;95.70;;;;;;5094972;28;20290;-65
2021/09/13 07:49:26;;;;;;;10.43;7.90;;;21.60;95.80;;;;;;5091158;28;20185;-63
2021/09/13 07:51:52;;;;;;;13.37;8.17;;;21.70;95.50;;;;;;5090308;28;20741;-62
2021/09/13 07:54:18;;;;;;;8.23;6.30;;;21.80;95.60;;;;;;5084591;28;20180;-64
2021/09/13 07:56:44;;;;;;;8.70;6.70;;;22.00;95.10;;;;;;5087897;28;20547;-62
2021/09/13 07:59:10;;;;;;;8.00;6.43;;;22.10;95.30;;;;;;5088129;28;20209;-63
2021/09/13 08:01:35;;;;;;;9.23;6.73;;;22.20;95.20;;;;;;5087236;28;20295;-64
2021/09/13 08:04:01;;;;;;;19.20;7.57;;;22.30;94.10;;;;;;5081014;28;20520;-63
2021/09/13 08:06:27;;;;;;;12.00;8.50;;;22.40;94.10;;;;;;5077796;28;20273;-65
2021/09/13 08:08:52;;;;;;;15.60;10.47;;;22.50;94.20;;;;;;5082603;28;20177;-63
2021/09/13 08:11:18;;;;;;;13.17;10.23;;;22.70;92.40;;;;;;5079766;28;20211;-62
2021/09/13 08:13:44;;;;;;;35.73;13.63;;;22.90;92.30;;;;;;5083430;28;20652;-63
2021/09/13 08:16:10;;;;;;;7.67;6.00;;;23.00;92.60;;;;;;5081902;28;20204;-63
2021/09/13 08:18:37;;;;;;;6.93;5.27;;;23.20;92.50;;;;;;5088795;28;20554;-62
2021/09/13 08:21:04;;;;;;;6.77;5.60;;;23.40;92.30;;;;;;5081185;28;21035;-65
2021/09/13 08:23:33;;;;;;;8.70;7.00;;;23.70;92.70;;;;;;5085606;28;20433;-64
2021/09/13 08:25:59;;;;;;;19.40;14.63;;;23.90;92.80;;;;;;5090585;28;20440;-62
2021/09/13 08:28:25;;;;;;;7.73;6.30;;;24.20;93.00;;;;;;5087481;28;20428;-63
2021/09/13 08:30:52;;;;;;;12.20;6.53;;;24.50;91.80;;;;;;5088147;28;20437;-64
2021/09/13 08:33:17;;;;;;;9.50;5.33;;;24.70;91.20;;;;;;5081475;28;20408;-63
2021/09/13 08:35:43;;;;;;;6.27;5.60;;;25.00;90.40;;;;;;5104579;27;20453;-64
2021/09/13 08:38:09;;;;;;;12.77;5.73;;;25.20;89.40;;;;;;5084025;28;20185;-62
2021/09/13 08:40:34;;;;;;;13.50;5.97;;;25.30;88.00;;;;;;5087195;28;20219;-64
2021/09/13 08:43:02;;;;;;;6.93;5.73;;;25.50;88.20;;;;;;5090338;28;20200;-62
2021/09/13 08:45:41;;;;;;;11.13;6.30;;;25.70;88.60;;;;;;5088842;28;20224;-62
2021/09/13 08:50:43;;;;;;;10.80;6.07;;;26.40;87.80;;;;;;5093679;28;20465;-62
2021/09/13 08:53:13;;;;;;;5.60;4.43;;;26.60;87.10;;;;;;5091292;28;20988;-62
2021/09/13 08:55:38;;;;;;;9.90;5.50;;;26.80;86.70;;;;;;5085715;28;20478;-63
2021/09/13 08:58:06;;;;;;;6.27;5.67;;;26.90;87.70;;;;;;5088681;28;20472;-65
2021/09/13 09:00:36;;;;;;;6.80;6.13;;;26.90;86.80;;;;;;5090932;28;20184;-67
2021/09/13 09:03:03;;;;;;;6.10;4.93;;;26.90;85.70;;;;;;5089904;28;20441;-66
2021/09/13 09:05:29;;;;;;;8.17;5.70;;;27.00;86.50;;;;;;5090823;28;20472;-65
2021/09/13 09:07:55;;;;;;;8.50;5.27;;;26.90;85.70;;;;;;5089580;28;20502;-65
2021/09/13 09:10:24;;;;;;;7.40;5.30;;;26.90;86.30;;;;;;5085642;28;20199;-65
2021/09/13 09:13:08;;;;;;;8.80;5.73;;;26.90;85.40;;;;;;5092305;28;20473;-66
2021/09/13 09:15:34;;;;;;;6.93;5.37;;;27.00;85.10;;;;;;5091293;28;20437;-65
2021/09/13 09:18:00;;;;;;;9.33;5.87;;;27.00;85.30;;;;;;5091326;28;20961;-63
2021/09/13 09:20:27;;;;;;;5.50;4.63;;;27.00;84.10;;;;;;5087879;28;20645;-64
2021/09/13 09:23:01;;;;;;;9.33;6.10;;;27.10;82.20;;;;;;5085726;28;20464;-65
2021/09/13 09:25:39;;;;;;;4.63;4.23;;;27.10;82.20;;;;;;5104194;28;20439;-64
2021/09/13 09:28:15;;;;;;;6.83;4.97;;;27.10;82.60;;;;;;5091668;28;20468;-65
2021/09/13 09:30:45;;;;;;;7.00;5.23;;;27.10;79.10;;;;;;5089771;28;20916;-64
2021/09/13 09:33:22;;;;;;;6.33;4.90;;;27.10;79.30;;;;;;5086240;28;20560;-65
2021/09/13 09:35:50;;;;;;;8.67;4.50;;;27.10;80.00;;;;;;5089988;28;20534;-64
2021/09/13 09:38:36;;;;;;;4.47;4.07;;;27.20;80.00;;;;;;5090180;28;20988;-66
2021/09/13 09:41:12;;;;;;;8.20;4.90;;;27.30;81.90;;;;;;5088618;28;20855;-66
2021/09/13 09:43:58;;;;;;;5.33;4.87;;;27.30;80.90;;;;;;5089706;28;20499;-65
2021/09/13 09:46:34;;;;;;;7.20;4.77;;;27.40;80.80;;;;;;5086546;28;20453;-64
2021/09/13 09:49:04;;;;;;;5.97;4.47;;;27.40;79.10;;;;;;5085834;28;20890;-64
2021/09/13 09:51:32;;;;;;;6.97;4.60;;;27.40;80.10;;;;;;5082367;28;20881;-64
2021/09/13 09:54:11;;;;;;;5.50;5.00;;;27.40;82.10;;;;;;5087242;28;20655;-66
2021/09/13 09:56:38;;;;;;;5.00;4.30;;;27.40;81.50;;;;;;5087302;28;20464;-65
2021/09/13 09:59:09;;;;;;;5.60;4.47;;;27.40;81.60;;;;;;5088211;28;20433;-64
2021/09/13 10:01:40;;;;;;;4.90;4.50;;;27.50;79.80;;;;;;5088699;28;20448;-64
2021/09/13 10:04:18;;;;;;;6.20;5.27;;;27.60;81.80;;;;;;5088569;28;20420;-66
2021/09/13 10:06:46;;;;;;;5.30;4.80;;;27.60;80.00;;;;;;5088511;28;20455;-64
2021/09/13 10:09:13;;;;;;;7.90;5.20;;;27.70;79.40;;;;;;5091202;28;20416;-65
2021/09/13 10:11:40;;;;;;;6.13;4.40;;;27.80;78.80;;;;;;5090566;28;20571;-63
2021/09/13 10:14:08;;;;;;;5.37;4.77;;;27.80;77.00;;;;;;5091674;28;20419;-63
2021/09/13 10:16:37;;;;;;;6.97;5.20;;;27.80;79.20;;;;;;5091629;28;20455;-64
2021/09/13 10:19:02;;;;;;;6.47;4.70;;;27.90;76.20;;;;;;5090399;28;20424;-63
2021/09/13 10:21:28;;;;;;;7.30;5.30;;;28.00;76.50;;;;;;5092938;28;20807;-63
2021/09/13 10:23:54;;;;;;;6.20;5.03;;;28.00;76.80;;;;;;5093351;28;20173;-64
2021/09/13 10:26:20;;;;;;;6.23;5.70;;;28.10;77.60;;;;;;5091004;28;20196;-63
2021/09/13 10:29:01;;;;;;;5.60;5.00;;;28.10;75.90;;;;;;5091872;28;20423;-64
2021/09/13 10:32:12;;;;;;;5.03;4.53;;;28.20;76.70;;;;;;5090871;28;20447;-64
2021/09/13 10:34:40;;;;;;;5.40;4.47;;;28.20;79.10;;;;;;5077780;28;20478;-64
2021/09/13 10:37:13;;;;;;;5.40;4.90;;;28.20;76.10;;;;;;5091587;28;20468;-65
2021/09/13 10:39:53;;;;;;;7.20;4.87;;;28.20;77.50;;;;;;5092379;28;20424;-65
2021/09/13 10:42:36;;;;;;;5.37;4.87;;;28.30;76.40;;;;;;5092188;28;20849;-63
2021/09/13 10:45:17;;;;;;;6.30;4.80;;;28.30;75.70;;;;;;5084975;28;20435;-63
2021/09/13 10:48:15;;;;;;;8.30;4.97;;;28.40;75.70;;;;;;5097441;28;20455;-64
2021/09/13 10:50:50;;;;;;;5.10;4.67;;;28.40;78.00;;;;;;5084758;28;20928;-65
2021/09/13 10:53:18;;;;;;;5.97;5.23;;;28.40;77.50;;;;;;5087454;28;20478;-63
2021/09/13 10:55:49;;;;;;;6.37;4.90;;;28.50;76.60;;;;;;5086054;28;20444;-63
2021/09/13 10:58:43;;;;;;;5.00;4.50;;;28.50;75.10;;;;;;5087197;28;20934;-65
2021/09/13 11:01:29;;;;;;;6.70;4.67;;;28.50;73.70;;;;;;5080770;28;20973;-63
2021/09/13 11:04:05;;;;;;;5.47;4.97;;;28.50;74.30;;;;;;5086676;28;20513;-63
2021/09/13 11:06:40;;;;;;;5.60;5.10;;;28.50;74.80;;;;;;5091030;28;20519;-64
2021/09/13 11:09:14;;;;;;;5.27;4.37;;;28.50;73.70;;;;;;5087567;28;20491;-63
2021/09/13 11:11:44;;;;;;;5.17;4.50;;;28.50;72.60;;;;;;5095238;28;20546;-64
2021/09/13 11:14:16;;;;;;;4.97;4.47;;;28.50;76.20;;;;;;5093395;28;20437;-65
2021/09/13 11:17:02;;;;;;;4.70;4.30;;;28.40;77.00;;;;;;5087234;28;20449;-63
2021/09/13 11:19:28;;;;;;;4.97;4.47;;;28.50;75.30;;;;;;5084296;28;20483;-65
2021/09/13 11:22:00;;;;;;;4.40;4.00;;;28.40;76.40;;;;;;5081822;28;20488;-64
2021/09/13 11:24:33;;;;;;;4.17;3.87;;;28.40;76.60;;;;;;5086585;28;20429;-65
2021/09/13 11:27:04;;;;;;;5.20;4.40;;;28.40;75.50;;;;;;5083121;28;20864;-64
2021/09/13 11:29:38;;;;;;;4.47;4.13;;;28.40;73.20;;;;;;5087778;28;21015;-63
2021/09/13 11:32:07;;;;;;;6.23;4.57;;;28.40;73.30;;;;;;5083203;28;20839;-65
2021/09/13 11:34:39;;;;;;;4.80;4.40;;;28.50;72.20;;;;;;5089752;28;20468;-63
2021/09/13 11:37:27;;;;;;;6.53;4.90;;;28.50;73.00;;;;;;5087361;28;20462;-64
2021/09/13 11:40:00;;;;;;;6.73;4.53;;;28.50;75.90;;;;;;5088359;28;20985;-63
2021/09/13 11:42:28;;;;;;;5.37;4.30;;;28.50;74.00;;;;;;5089175;28;20483;-65
2021/09/13 11:44:56;;;;;;;6.60;5.20;;;28.50;74.30;;;;;;5088007;28;20913;-65
2021/09/13 11:47:28;;;;;;;5.10;4.60;;;28.50;74.30;;;;;;5088106;28;20502;-64
2021/09/13 11:49:56;;;;;;;5.23;4.73;;;28.50;76.30;;;;;;5090126;28;20859;-63
2021/09/13 11:52:40;;;;;;;6.60;5.00;;;28.50;76.00;;;;;;5090814;28;20520;-64
2021/09/13 11:55:16;;;;;;;5.03;4.53;;;28.50;77.70;;;;;;5096037;28;20844;-63
2021/09/13 11:57:56;;;;;;;5.37;4.00;;;28.40;77.70;;;;;;5085977;28;20447;-66
2021/09/13 12:00:35;;;;;;;4.90;4.23;;;28.40;77.70;;;;;;5084227;28;20409;-64
2021/09/13 12:03:03;;;;;;;4.50;4.10;;;28.40;77.80;;;;;;5088170;28;20522;-64
2021/09/13 12:05:40;;;;;;;4.33;3.60;;;28.40;75.80;;;;;;5088840;28;20421;-65
2021/09/13 12:08:10;;;;;;;4.73;4.17;;;28.40;77.90;;;;;;5086079;28;20417;-64
2021/09/13 12:10:37;;;;;;;5.20;4.30;;;28.40;74.60;;;;;;5089232;28;20437;-63
2021/09/13 12:13:13;;;;;;;4.33;3.93;;;28.40;77.00;;;;;;5082374;28;20947;-65
2021/09/13 12:15:39;;;;;;;4.20;3.90;;;28.30;78.40;;;;;;5085877;28;20413;-63
2021/09/13 12:18:08;;;;;;;4.87;4.37;;;28.30;78.40;;;;;;5084492;28;20961;-64
2021/09/13 12:20:38;;;;;;;4.40;4.00;;;28.30;78.40;;;;;;5083401;28;20444;-66
2021/09/13 12:23:10;;;;;;;4.93;4.50;;;28.30;78.70;;;;;;5084072;28;20510;-63
2021/09/13 12:25:45;;;;;;;5.30;4.20;;;28.20;78.90;;;;;;5086935;28;20433;-63
2021/09/13 12:28:12;;;;;;;9.43;4.50;;;28.20;78.80;;;;;;5086509;28;20429;-63
2021/09/13 12:30:40;;;;;;;4.80;4.40;;;28.20;78.60;;;;;;5085339;28;20437;-64
2021/09/13 12:33:09;;;;;;;5.60;4.60;;;28.20;77.90;;;;;;5089010;28;20469;-65
2021/09/13 12:35:46;;;;;;;5.00;3.97;;;28.20;77.00;;;;;;5095351;28;20436;-64
2021/09/13 12:38:23;;;;;;;4.57;4.10;;;28.20;78.00;;;;;;5092635;28;20423;-63
2021/09/13 12:40:49;;;;;;;4.57;4.20;;;28.20;78.70;;;;;;5091777;28;20524;-64
2021/09/13 12:43:27;;;;;;;5.67;4.37;;;28.20;79.10;;;;;;5109193;27;20740;-64
2021/09/13 12:46:18;;;;;;;5.47;4.73;;;28.10;79.50;;;;;;5086395;28;20444;-63
2021/09/13 12:48:49;;;;;;;5.80;4.27;;;28.10;79.50;;;;;;5086780;28;20523;-65
2021/09/13 12:51:21;;;;;;;4.40;4.00;;;28.00;79.60;;;;;;5089987;28;21036;-63
2021/09/13 12:53:59;;;;;;;5.50;4.60;;;28.00;79.40;;;;;;5091592;28;20441;-65